Time;durP1;ratioP1;P1;durP2;ratioP2;P2;SDS_P1;SDS_P2;PMS_P1;PMS_P2;Temp;Humidity;BMP_temperature;BMP_pressure;BME280_temperature;BME280_humidity;BME280_pressure;Samples;Min_cycle;Max_cycle;Signal;HPM_P1;HPM_P2
2022/04/28 00:01:51;;;;;;;2.42;2.22;;;5.90;99.90;;;;;;7374673;19;20317;-74
2022/04/28 00:04:16;;;;;;;2.60;2.40;;;5.80;99.90;;;;;;7377604;19;20364;-77
2022/04/28 00:06:42;;;;;;;2.50;2.30;;;5.90;99.90;;;;;;7377408;19;20373;-75
2022/04/28 00:09:07;;;;;;;3.10;2.70;;;5.80;99.90;;;;;;7376042;19;20332;-76
2022/04/28 00:11:33;;;;;;;2.70;2.50;;;5.80;99.90;;;;;;7202143;19;3398911;-76
2022/04/28 00:13:59;;;;;;;3.10;2.65;;;5.90;99.90;;;;;;7382276;19;20343;-74
2022/04/28 00:16:26;;;;;;;3.33;2.30;;;5.80;99.90;;;;;;7378260;19;20336;-74
2022/04/28 00:18:52;;;;;;;2.83;2.33;;;5.90;99.90;;;;;;7377279;19;20340;-76
2022/04/28 00:21:17;;;;;;;2.83;2.50;;;5.80;99.90;;;;;;7378286;19;20738;-75
2022/04/28 00:23:43;;;;;;;2.78;2.40;;;5.80;99.90;;;;;;7382032;19;20329;-76
2022/04/28 00:26:08;;;;;;;2.70;2.33;;;5.90;99.90;;;;;;7381352;19;20344;-74
2022/04/28 00:28:34;;;;;;;3.92;2.53;;;5.90;99.90;;;;;;7380167;19;20420;-75
2022/04/28 00:30:59;;;;;;;2.30;2.10;;;5.90;99.90;;;;;;7375463;19;20387;-76
2022/04/28 00:33:27;;;;;;;2.60;2.40;;;5.90;99.90;;;;;;7379139;19;20365;-75
2022/04/28 00:35:53;;;;;;;2.22;2.03;;;5.80;99.90;;;;;;7382713;19;20352;-75
2022/04/28 00:38:19;;;;;;;2.40;2.13;;;5.80;99.90;;;;;;7379909;19;20427;-78
2022/04/28 00:40:44;;;;;;;2.37;2.13;;;5.80;99.90;;;;;;7379150;19;20443;-74
2022/04/28 00:43:19;;;;;;;2.50;2.30;;;5.80;99.90;;;;;;7379940;19;20361;-75
2022/04/28 00:45:48;;;;;;;2.70;2.50;;;5.80;99.90;;;;;;7380791;19;20332;-74
2022/04/28 00:51:00;;;;;;;2.40;2.20;;;5.90;99.90;;;;;;7374450;19;20340;-75
2022/04/28 00:53:28;;;;;;;3.90;2.55;;;5.60;99.90;;;;;;7379958;19;20418;-77
2022/04/28 00:55:54;;;;;;;2.78;2.35;;;5.70;99.90;;;;;;7379728;19;20313;-77
2022/04/28 00:58:19;;;;;;;3.70;2.22;;;5.60;99.90;;;;;;7378981;19;20440;-74
2022/04/28 01:00:45;;;;;;;2.17;2.07;;;5.50;99.90;;;;;;7371180;19;20352;-78
2022/04/28 01:03:11;;;;;;;2.25;2.10;;;5.50;99.90;;;;;;7375577;19;20420;-74
2022/04/28 01:05:37;;;;;;;2.58;2.35;;;5.50;99.90;;;;;;7374760;19;20834;-75
2022/04/28 01:08:02;;;;;;;2.27;2.07;;;5.50;99.90;;;;;;7377653;19;21164;-77
2022/04/28 01:10:28;;;;;;;4.07;2.42;;;5.50;99.90;;;;;;7372761;19;20365;-75
2022/04/28 01:12:54;;;;;;;2.50;2.30;;;5.50;99.90;;;;;;7375124;19;20349;-74
2022/04/28 01:15:20;;;;;;;2.83;2.50;;;5.40;99.90;;;;;;7377307;19;20348;-73
2022/04/28 01:17:46;;;;;;;2.50;2.30;;;5.30;99.90;;;;;;7373775;19;20384;-74
2022/04/28 01:20:11;;;;;;;2.40;2.17;;;5.30;99.90;;;;;;7374391;19;20427;-75
2022/04/28 01:22:38;;;;;;;2.55;2.35;;;5.30;99.90;;;;;;7377690;19;20344;-75
2022/04/28 01:25:09;;;;;;;2.60;2.40;;;5.30;99.90;;;;;;7377026;19;20867;-75
2022/04/28 01:27:35;;;;;;;3.03;2.55;;;5.30;99.90;;;;;;7376814;19;20313;-74
2022/04/28 01:30:01;;;;;;;2.85;2.63;;;5.20;99.90;;;;;;7375557;19;20325;-76
2022/04/28 01:32:29;;;;;;;2.50;2.30;;;5.10;99.90;;;;;;7374605;19;20724;-75
2022/04/28 01:34:55;;;;;;;2.92;2.63;;;5.00;99.90;;;;;;7377701;19;20341;-75
2022/04/28 01:37:21;;;;;;;2.40;2.20;;;5.00;99.90;;;;;;7378937;19;20354;-74
2022/04/28 01:39:48;;;;;;;2.70;2.50;;;4.90;99.90;;;;;;7375230;19;20355;-74
2022/04/28 01:42:13;;;;;;;2.97;2.77;;;5.10;99.90;;;;;;7375182;19;20317;-75
2022/04/28 01:44:39;;;;;;;2.40;2.20;;;4.70;99.90;;;;;;7376276;19;20356;-76
2022/04/28 01:47:04;;;;;;;2.70;2.50;;;4.70;99.90;;;;;;7377694;19;21325;-75
2022/04/28 01:49:50;;;;;;;2.60;2.40;;;4.80;99.90;;;;;;7375726;19;20348;-74
2022/04/28 01:55:21;;;;;;;2.97;2.75;;;4.90;99.90;;;;;;7276131;19;2005907;-73
2022/04/28 01:58:02;;;;;;;2.85;2.60;;;4.90;99.90;;;;;;7276606;19;2004225;-76
2022/04/28 02:00:46;;;;;;;3.42;2.92;;;5.00;99.90;;;;;;7370571;19;20854;-77
2022/04/28 02:03:13;;;;;;;4.50;2.55;;;5.00;99.90;;;;;;7376458;19;20415;-74
2022/04/28 02:05:39;;;;;;;3.30;2.50;;;5.00;99.90;;;;;;7378823;19;20428;-74
2022/04/28 02:08:07;;;;;;;2.85;2.55;;;5.00;99.90;;;;;;7378400;19;20332;-76
2022/04/28 02:10:33;;;;;;;2.63;2.40;;;5.00;99.90;;;;;;7374606;19;20408;-75
2022/04/28 02:13:00;;;;;;;2.70;2.50;;;5.20;99.90;;;;;;7376520;19;20366;-74
2022/04/28 02:15:36;;;;;;;2.88;2.67;;;5.20;99.90;;;;;;7380095;19;20344;-77
2022/04/28 02:18:25;;;;;;;2.83;2.55;;;5.10;99.90;;;;;;7282521;19;2004611;-74
2022/04/28 02:20:51;;;;;;;3.05;2.72;;;5.10;99.90;;;;;;7380231;19;20360;-73
2022/04/28 02:23:17;;;;;;;2.80;2.60;;;5.10;99.90;;;;;;7383851;19;20333;-75
2022/04/28 02:25:43;;;;;;;3.13;2.83;;;5.10;99.90;;;;;;7385293;19;20336;-75
2022/04/28 02:28:09;;;;;;;3.37;3.07;;;5.10;99.90;;;;;;7383306;19;20327;-74
2022/04/28 02:30:34;;;;;;;3.95;3.40;;;5.10;99.90;;;;;;7378664;19;20316;-74
2022/04/28 02:33:09;;;;;;;3.73;3.33;;;5.00;99.90;;;;;;7384493;19;20334;-74
2022/04/28 02:35:52;;;;;;;3.65;3.35;;;5.00;99.90;;;;;;7282437;19;2004245;-74
2022/04/28 02:38:18;;;;;;;3.30;3.00;;;5.10;99.90;;;;;;7383162;19;20383;-74
2022/04/28 02:40:45;;;;;;;3.85;2.85;;;5.00;99.90;;;;;;7379133;19;20428;-74
2022/04/28 02:43:11;;;;;;;3.80;2.45;;;5.00;99.90;;;;;;7380176;19;20357;-74
2022/04/28 02:45:36;;;;;;;3.00;2.70;;;5.10;99.90;;;;;;7382949;19;21353;-75
2022/04/28 02:48:02;;;;;;;3.25;2.90;;;5.10;99.90;;;;;;7383250;19;20328;-74
2022/04/28 02:50:28;;;;;;;3.42;3.10;;;5.20;99.90;;;;;;7379247;19;20408;-77
2022/04/28 02:52:53;;;;;;;4.63;2.97;;;5.20;99.90;;;;;;7380457;19;20344;-76
2022/04/28 02:55:20;;;;;;;3.20;2.90;;;5.20;99.90;;;;;;7381470;19;20360;-73
2022/04/28 02:57:46;;;;;;;4.45;3.17;;;5.30;99.90;;;;;;7383135;19;20315;-74
2022/04/28 03:00:12;;;;;;;3.15;2.85;;;5.30;99.90;;;;;;7377828;19;20348;-74
2022/04/28 03:03:00;;;;;;;3.33;3.03;;;5.30;99.90;;;;;;7381249;19;20321;-74
2022/04/28 03:05:25;;;;;;;3.10;2.80;;;5.20;99.90;;;;;;7382635;19;20357;-74
2022/04/28 03:10:49;;;;;;;3.30;2.78;;;5.20;99.90;;;;;;7276674;19;2005816;-73
2022/04/28 03:13:19;;;;;;;3.30;3.00;;;5.30;99.90;;;;;;7380574;19;20481;-75
2022/04/28 03:15:48;;;;;;;3.20;2.90;;;5.40;99.90;;;;;;7370635;19;20343;-77
2022/04/28 03:18:15;;;;;;;2.80;2.47;;;5.30;99.90;;;;;;7382630;19;20383;-76
2022/04/28 03:20:41;;;;;;;2.70;2.50;;;5.30;99.90;;;;;;7378790;19;20371;-75
2022/04/28 03:23:07;;;;;;;3.33;3.03;;;5.40;99.90;;;;;;7381924;19;20357;-76
2022/04/28 03:25:33;;;;;;;3.20;2.90;;;5.40;99.90;;;;;;7380175;19;20364;-76
2022/04/28 03:27:59;;;;;;;4.05;3.38;;;5.30;99.90;;;;;;7381208;19;20333;-74
2022/04/28 03:30:24;;;;;;;3.60;3.30;;;5.30;99.90;;;;;;7378142;19;20806;-75
2022/04/28 03:33:04;;;;;;;2.73;2.53;;;5.20;99.90;;;;;;7278770;19;2004461;-76
2022/04/28 03:35:30;;;;;;;3.03;2.83;;;5.20;99.90;;;;;;7383770;19;20329;-75
2022/04/28 03:37:58;;;;;;;3.28;2.83;;;5.20;99.90;;;;;;7380839;19;20352;-74
2022/04/28 03:40:23;;;;;;;3.80;2.50;;;5.20;99.90;;;;;;7380270;19;20332;-75
2022/04/28 03:42:49;;;;;;;3.20;3.00;;;5.20;99.90;;;;;;7384939;19;20336;-76
2022/04/28 03:45:16;;;;;;;9.30;7.00;;;5.20;99.90;;;;;;7382065;19;20348;-77
2022/04/28 03:47:42;;;;;;;3.97;3.67;;;5.30;99.90;;;;;;7381782;19;20654;-74
2022/04/28 03:50:08;;;;;;;3.38;3.08;;;5.20;99.90;;;;;;7379759;19;20347;-75
2022/04/28 03:52:34;;;;;;;3.40;3.10;;;5.10;99.90;;;;;;7384437;19;20353;-75
2022/04/28 03:54:59;;;;;;;4.03;3.07;;;5.10;99.90;;;;;;7384410;19;20388;-76
2022/04/28 03:57:26;;;;;;;4.30;3.30;;;5.00;99.90;;;;;;7383081;19;20428;-75
2022/04/28 03:59:52;;;;;;;3.58;3.28;;;5.00;99.90;;;;;;7377658;19;21247;-76
2022/04/28 04:02:18;;;;;;;4.97;3.00;;;5.10;99.90;;;;;;7379637;19;20358;-76
2022/04/28 04:04:44;;;;;;;3.53;3.22;;;4.90;99.90;;;;;;7378486;19;20882;-75
2022/04/28 04:07:10;;;;;;;4.07;2.90;;;4.90;99.90;;;;;;7379967;19;20320;-76
2022/04/28 04:09:36;;;;;;;3.08;2.80;;;4.90;99.90;;;;;;7378562;19;21238;-75
2022/04/28 04:12:15;;;;;;;3.30;3.00;;;4.90;99.90;;;;;;7377792;19;20843;-76
2022/04/28 04:15:03;;;;;;;3.20;2.90;;;4.90;99.90;;;;;;7278781;19;2004265;-76
2022/04/28 04:17:48;;;;;;;3.00;2.70;;;5.00;99.90;;;;;;7277362;19;2004215;-74
2022/04/28 04:20:13;;;;;;;2.70;2.50;;;5.10;99.90;;;;;;7376861;19;20329;-76
2022/04/28 04:22:40;;;;;;;4.72;3.20;;;5.20;99.90;;;;;;7376768;19;20352;-76
2022/04/28 04:25:06;;;;;;;3.63;3.23;;;5.30;99.90;;;;;;7378491;19;20340;-74
2022/04/28 04:27:31;;;;;;;4.72;3.63;;;5.30;99.90;;;;;;7378214;19;20320;-75
2022/04/28 04:32:55;;;;;;;3.15;2.85;;;5.20;99.90;;;;;;7273462;19;2004369;-74
2022/04/28 04:35:24;;;;;;;3.88;2.78;;;5.30;99.90;;;;;;7380013;19;20329;-75
2022/04/28 04:37:55;;;;;;;3.38;3.08;;;5.30;99.90;;;;;;7375036;19;20324;-73
2022/04/28 04:40:25;;;;;;;5.53;3.22;;;5.30;99.90;;;;;;7373104;19;20878;-74
2022/04/28 04:42:50;;;;;;;4.13;3.50;;;5.30;99.90;;;;;;7377312;19;20348;-75
2022/04/28 04:45:16;;;;;;;3.40;3.10;;;5.40;99.90;;;;;;7376156;19;20343;-74
2022/04/28 04:47:56;;;;;;;4.65;3.90;;;5.40;99.90;;;;;;7377736;19;20478;-75
2022/04/28 04:50:39;;;;;;;4.30;3.10;;;5.40;99.90;;;;;;7273471;19;2004821;-76
2022/04/28 04:53:07;;;;;;;5.10;3.85;;;5.40;99.90;;;;;;7376020;19;20353;-77
2022/04/28 04:55:33;;;;;;;3.70;3.40;;;5.40;99.90;;;;;;7377022;19;20351;-74
2022/04/28 04:58:04;;;;;;;3.92;3.50;;;5.40;99.90;;;;;;7376029;19;20403;-77
2022/04/28 05:00:30;;;;;;;5.25;3.97;;;5.50;99.90;;;;;;7370843;19;20320;-77
2022/04/28 05:03:21;;;;;;;3.40;3.10;;;5.50;99.90;;;;;;7274873;19;2004752;-75
2022/04/28 05:06:10;;;;;;;4.03;3.55;;;5.50;99.90;;;;;;7273709;19;2004502;-75
2022/04/28 05:08:46;;;;;;;4.75;4.00;;;5.60;99.90;;;;;;7376267;19;20372;-74
2022/04/28 05:11:12;;;;;;;3.90;3.60;;;5.70;99.90;;;;;;7372639;19;20935;-75
2022/04/28 05:14:01;;;;;;;3.90;3.40;;;5.70;99.90;;;;;;7269592;19;2004570;-76
2022/04/28 05:16:27;;;;;;;4.13;3.72;;;5.90;99.90;;;;;;7374275;19;20333;-77
2022/04/28 05:19:11;;;;;;;4.15;3.70;;;6.00;99.90;;;;;;7270216;19;2004334;-75
2022/04/28 05:21:55;;;;;;;4.53;4.13;;;6.20;99.90;;;;;;7376921;19;20327;-78
2022/04/28 05:24:38;;;;;;;4.30;3.70;;;6.00;99.90;;;;;;7389693;19;20902;-78
2022/04/28 05:27:30;;;;;;;4.50;4.10;;;6.10;99.90;;;;;;7287955;19;2004540;-78
2022/04/28 05:30:14;;;;;;;4.30;3.90;;;6.20;99.90;;;;;;7285427;19;2004441;-78
2022/04/28 05:32:59;;;;;;;4.18;3.78;;;6.40;99.90;;;;;;7390934;19;20355;-78
2022/04/28 05:35:43;;;;;;;6.05;5.00;;;6.40;99.90;;;;;;7391829;19;20337;-78
2022/04/28 05:40:39;;;;;;;6.18;5.10;;;6.50;99.90;;;;;;7377123;19;20320;-77
2022/04/28 05:45:51;;;;;;;5.15;4.43;;;6.70;99.90;;;;;;7273955;19;2004325;-78
2022/04/28 05:48:17;;;;;;;5.30;4.80;;;6.80;99.90;;;;;;7377379;19;20317;-78
2022/04/28 05:50:48;;;;;;;4.57;4.17;;;6.90;99.90;;;;;;7373207;19;20412;-76
2022/04/28 05:53:17;;;;;;;5.82;5.10;;;7.10;99.90;;;;;;7373828;19;20907;-77
2022/04/28 05:55:46;;;;;;;6.23;5.20;;;7.20;99.90;;;;;;7373938;19;20312;-77
2022/04/28 05:58:11;;;;;;;5.85;5.30;;;7.20;99.90;;;;;;7374174;19;20883;-76
2022/04/28 06:00:42;;;;;;;6.43;4.82;;;7.30;99.90;;;;;;7372025;19;20875;-77
2022/04/28 06:03:08;;;;;;;6.05;4.43;;;7.50;99.90;;;;;;7374649;19;20337;-77
2022/04/28 06:05:39;;;;;;;6.28;4.72;;;7.70;99.90;;;;;;7376714;19;20419;-77
2022/04/28 06:08:05;;;;;;;5.90;5.18;;;7.90;99.90;;;;;;7378688;19;20376;-77
2022/04/28 06:10:31;;;;;;;7.25;5.90;;;8.00;99.90;;;;;;7375021;19;20324;-78
2022/04/28 06:12:57;;;;;;;6.33;5.20;;;8.10;99.90;;;;;;7374836;19;21227;-77
2022/04/28 06:15:35;;;;;;;9.10;5.20;;;8.20;99.90;;;;;;7350671;19;20364;-76
2022/04/28 06:18:23;;;;;;;5.65;4.60;;;8.50;99.90;;;;;;7272726;19;2004618;-80
2022/04/28 06:20:49;;;;;;;7.10;5.43;;;8.60;99.90;;;;;;7373765;19;20464;-77
2022/04/28 06:23:23;;;;;;;6.03;5.25;;;8.60;99.90;;;;;;7375078;19;20332;-77
2022/04/28 06:25:49;;;;;;;5.68;4.90;;;8.70;99.90;;;;;;7373889;19;20345;-77
2022/04/28 06:28:15;;;;;;;5.77;4.70;;;8.80;99.90;;;;;;7374957;19;20337;-77
2022/04/28 06:30:45;;;;;;;5.20;4.53;;;8.90;99.90;;;;;;7372023;19;20312;-77
2022/04/28 06:33:43;;;;;;;5.40;4.90;;;9.00;99.90;;;;;;7274987;19;2004716;-76
2022/04/28 06:36:18;;;;;;;6.00;5.18;;;9.00;99.90;;;;;;7379076;19;20308;-76
2022/04/28 06:38:46;;;;;;;5.05;4.25;;;9.00;99.90;;;;;;7377977;19;20313;-75
2022/04/28 06:41:11;;;;;;;7.23;5.13;;;9.10;99.90;;;;;;7379344;19;20348;-75
2022/04/28 06:43:41;;;;;;;5.75;4.55;;;9.20;99.90;;;;;;7376778;19;20328;-75
2022/04/28 06:46:36;;;;;;;5.43;4.22;;;9.40;99.90;;;;;;7378653;19;20348;-75
2022/04/28 06:49:20;;;;;;;6.35;4.90;;;9.60;99.90;;;;;;7274531;19;2004601;-76
2022/04/28 06:51:58;;;;;;;5.20;4.60;;;9.70;99.90;;;;;;7274307;19;2004473;-76
2022/04/28 06:54:34;;;;;;;4.38;3.97;;;9.80;99.90;;;;;;7273920;19;2004348;-76
2022/04/28 06:57:00;;;;;;;5.20;4.23;;;10.00;99.90;;;;;;7376650;19;20718;-76
2022/04/28 06:59:29;;;;;;;5.75;4.10;;;10.20;99.90;;;;;;7376181;19;20341;-75
2022/04/28 07:01:55;;;;;;;4.00;3.60;;;10.30;99.90;;;;;;7378128;19;20311;-76
2022/04/28 07:04:22;;;;;;;3.90;3.40;;;10.50;99.90;;;;;;7380994;19;20347;-77
2022/04/28 07:06:48;;;;;;;3.75;3.30;;;10.60;99.90;;;;;;7382206;19;20376;-76
2022/04/28 07:09:13;;;;;;;3.83;3.43;;;10.80;99.90;;;;;;7384874;19;20297;-76
2022/04/28 07:11:39;;;;;;;4.47;3.90;;;11.10;99.90;;;;;;7383312;19;20778;-81
2022/04/28 07:14:23;;;;;;;6.40;3.53;;;11.20;99.90;;;;;;7385082;19;20338;-78
2022/04/28 07:17:15;;;;;;;3.73;2.90;;;11.30;99.90;;;;;;7280831;19;2004503;-81
2022/04/28 07:19:56;;;;;;;3.30;2.80;;;11.50;99.90;;;;;;7385316;19;20364;-77
2022/04/28 07:22:23;;;;;;;3.20;2.90;;;11.80;99.90;;;;;;7384219;19;20333;-77
2022/04/28 07:24:48;;;;;;;5.00;3.60;;;12.10;99.90;;;;;;7384263;19;20684;-78
2022/04/28 07:27:14;;;;;;;4.75;3.60;;;12.30;99.90;;;;;;7386045;19;20369;-78
2022/04/28 07:29:43;;;;;;;5.15;3.30;;;12.40;99.90;;;;;;7388434;19;20304;-78
2022/04/28 07:32:13;;;;;;;4.17;3.03;;;12.40;99.90;;;;;;7386466;19;20361;-78
2022/04/28 07:34:57;;;;;;;5.10;3.40;;;12.60;99.90;;;;;;7387749;19;21270;-78
2022/04/28 07:37:42;;;;;;;4.53;3.42;;;12.70;99.90;;;;;;7260522;19;2004482;-77
2022/04/28 07:40:41;;;;;;;3.33;2.70;;;13.00;99.90;;;;;;7280772;19;2004383;-78
2022/04/28 07:43:13;;;;;;;4.47;2.78;;;13.30;99.90;;;;;;7381852;19;20332;-80
2022/04/28 07:45:39;;;;;;;3.03;2.60;;;13.50;99.90;;;;;;7383015;19;21329;-78
2022/04/28 07:48:11;;;;;;;4.30;2.78;;;13.50;99.90;;;;;;7383893;19;20323;-79
2022/04/28 07:50:37;;;;;;;3.08;2.58;;;13.70;99.90;;;;;;7380629;19;20404;-80
2022/04/28 07:53:10;;;;;;;2.80;2.28;;;13.90;99.90;;;;;;7382743;19;20348;-78
2022/04/28 07:55:36;;;;;;;2.22;2.03;;;14.20;99.90;;;;;;7379173;19;20359;-81
2022/04/28 07:58:01;;;;;;;4.07;2.55;;;14.50;99.90;;;;;;7380942;19;20336;-79
2022/04/28 08:00:47;;;;;;;2.80;2.37;;;14.50;99.90;;;;;;7275227;19;2004444;-75
2022/04/28 08:03:14;;;;;;;2.65;2.05;;;14.50;99.90;;;;;;7380180;19;20352;-77
2022/04/28 08:05:48;;;;;;;2.20;2.00;;;14.50;99.90;;;;;;7382332;19;20316;-77
2022/04/28 08:08:14;;;;;;;2.20;2.00;;;14.70;99.90;;;;;;7381485;19;20384;-78
2022/04/28 08:10:40;;;;;;;2.07;1.77;;;15.00;99.90;;;;;;7377874;19;20364;-77
2022/04/28 08:13:05;;;;;;;2.33;2.13;;;15.40;99.90;;;;;;7378516;19;20449;-76
2022/04/28 08:15:50;;;;;;;1.75;1.65;;;15.80;99.90;;;;;;7381538;19;20807;-76
2022/04/28 08:18:15;;;;;;;3.13;2.22;;;16.00;99.90;;;;;;7384827;19;20309;-77
2022/04/28 08:20:42;;;;;;;2.78;1.80;;;16.00;96.90;;;;;;7382021;19;20335;-76
2022/04/28 08:23:08;;;;;;;1.90;1.73;;;15.70;94.10;;;;;;7377919;19;20340;-77
2022/04/28 08:25:34;;;;;;;2.00;1.90;;;15.90;99.90;;;;;;7382019;19;20349;-77
2022/04/28 08:28:00;;;;;;;2.83;2.33;;;16.10;97.20;;;;;;7383541;19;20317;-77
2022/04/28 08:30:26;;;;;;;1.80;1.70;;;16.00;96.00;;;;;;7376602;19;20335;-77
2022/04/28 08:32:53;;;;;;;2.20;2.00;;;16.10;98.10;;;;;;7380829;19;20325;-76
2022/04/28 08:35:19;;;;;;;2.30;1.90;;;16.00;95.20;;;;;;7382905;19;20305;-76
2022/04/28 08:37:45;;;;;;;2.47;2.28;;;15.90;94.70;;;;;;7379122;19;20319;-77
2022/04/28 08:40:11;;;;;;;2.60;2.15;;;15.80;93.70;;;;;;7382042;19;20812;-77
2022/04/28 08:42:37;;;;;;;2.03;1.87;;;16.00;95.10;;;;;;7377891;19;20363;-79
2022/04/28 08:45:08;;;;;;;2.05;1.83;;;16.00;94.50;;;;;;7378369;19;20329;-77
2022/04/28 08:47:52;;;;;;;2.72;1.98;;;16.10;94.70;;;;;;7378657;19;20863;-77
2022/04/28 08:50:38;;;;;;;1.75;1.65;;;16.30;93.60;;;;;;7273246;19;2004338;-77
2022/04/28 08:53:09;;;;;;;1.70;1.60;;;16.70;94.10;;;;;;7379931;19;20308;-77
2022/04/28 08:55:39;;;;;;;1.90;1.80;;;17.10;95.90;;;;;;7379427;19;20814;-77
2022/04/28 08:58:04;;;;;;;2.85;2.40;;;17.60;93.20;;;;;;7377635;19;20324;-76
2022/04/28 09:00:38;;;;;;;2.45;2.25;;;17.30;92.50;;;;;;7377686;19;20340;-76
2022/04/28 09:03:22;;;;;;;2.22;2.03;;;16.50;90.50;;;;;;7276852;19;2004395;-76
2022/04/28 09:06:23;;;;;;;2.60;2.38;;;16.50;89.80;;;;;;7381434;19;20317;-77
2022/04/28 09:09:12;;;;;;;3.38;2.00;;;16.40;90.90;;;;;;7274152;19;2004404;-76
2022/04/28 09:11:58;;;;;;;2.90;2.20;;;16.80;93.00;;;;;;7379580;19;20368;-77
2022/04/28 09:14:42;;;;;;;2.90;2.60;;;17.30;92.50;;;;;;7378747;19;21011;-77
2022/04/28 09:17:08;;;;;;;2.60;2.40;;;16.90;90.60;;;;;;7378600;19;20345;-77
2022/04/28 09:19:36;;;;;;;3.15;2.88;;;17.20;93.50;;;;;;7374177;19;20800;-80
2022/04/28 09:22:12;;;;;;;2.90;2.63;;;17.40;91.20;;;;;;7378703;19;20357;-82
2022/04/28 09:24:39;;;;;;;3.05;2.72;;;17.50;90.80;;;;;;7377893;19;20427;-81
2022/04/28 09:27:05;;;;;;;3.33;2.60;;;17.20;92.30;;;;;;7382627;19;20332;-78
2022/04/28 09:29:36;;;;;;;2.67;2.47;;;17.30;90.20;;;;;;7379789;19;20321;-78
2022/04/28 09:32:08;;;;;;;2.95;2.65;;;17.70;92.00;;;;;;7275674;19;2004437;-79
2022/04/28 09:35:08;;;;;;;2.35;2.15;;;17.80;91.50;;;;;;7275344;19;2004915;-79
2022/04/28 09:37:47;;;;;;;3.50;2.55;;;18.60;92.20;;;;;;7381254;19;20345;-82
2022/04/28 09:43:00;;;;;;;6.60;2.33;;;19.50;89.90;;;;;;7380134;19;20325;-81
2022/04/28 09:45:37;;;;;;;5.35;2.70;;;19.40;85.70;;;;;;7382002;19;20356;-81
2022/04/28 09:48:05;;;;;;;2.83;2.50;;;19.60;82.80;;;;;;7381955;19;20388;-81
2022/04/28 09:50:47;;;;;;;4.50;2.75;;;19.30;85.20;;;;;;7386193;19;20849;-81
2022/04/28 09:53:14;;;;;;;3.45;2.75;;;19.50;86.70;;;;;;7389101;19;20331;-81
2022/04/28 09:56:00;;;;;;;3.88;2.75;;;19.70;87.10;;;;;;7383338;19;21272;-81
2022/04/28 09:58:39;;;;;;;3.10;2.80;;;20.10;83.70;;;;;;7376406;19;20352;-84
2022/04/28 10:01:04;;;;;;;4.03;3.20;;;20.20;85.40;;;;;;7376441;19;20313;-81
2022/04/28 10:03:33;;;;;;;3.60;3.25;;;19.80;80.20;;;;;;7380624;19;20367;-79
2022/04/28 10:06:06;;;;;;;7.38;3.25;;;20.20;83.20;;;;;;7380118;19;20708;-78
2022/04/28 10:09:09;;;;;;;5.57;3.00;;;20.20;79.80;;;;;;7274535;19;2004206;-79
2022/04/28 10:11:37;;;;;;;6.82;2.70;;;19.70;78.10;;;;;;7374988;19;20841;-77
2022/04/28 10:14:03;;;;;;;4.25;2.95;;;19.90;83.30;;;;;;7375827;19;20720;-80
2022/04/28 10:16:29;;;;;;;3.35;2.83;;;19.20;82.30;;;;;;7375456;19;20379;-81
2022/04/28 10:19:02;;;;;;;4.75;2.95;;;19.00;82.10;;;;;;7375159;19;20369;-79
2022/04/28 10:21:32;;;;;;;3.03;2.80;;;19.40;82.60;;;;;;7373969;19;20377;-80
2022/04/28 10:32:53;;;;;;;3.28;2.97;;;19.70;81.50;;;;;;7273844;19;2004306;-80
2022/04/28 10:35:33;;;;;;;3.50;2.30;;;19.90;79.30;;;;;;7276374;19;2004866;-82
2022/04/28 10:38:26;;;;;;;5.03;2.78;;;20.50;79.70;;;;;;7384435;19;20317;-79
2022/04/28 10:40:58;;;;;;;3.65;3.20;;;20.70;81.50;;;;;;7280258;19;2004606;-82
2022/04/28 10:43:28;;;;;;;5.13;3.10;;;20.90;80.50;;;;;;7385657;19;20328;-78
2022/04/28 10:45:54;;;;;;;4.10;3.20;;;20.80;76.40;;;;;;7384089;19;20324;-77
2022/04/28 10:48:30;;;;;;;3.35;3.03;;;20.70;78.60;;;;;;7382513;19;20327;-78
2022/04/28 10:51:13;;;;;;;3.40;2.85;;;21.00;76.20;;;;;;7381900;19;20408;-80
2022/04/28 10:54:09;;;;;;;2.90;2.70;;;21.60;79.50;;;;;;7384907;19;20328;-77
2022/04/28 10:57:05;;;;;;;5.25;3.08;;;21.90;75.60;;;;;;7280568;19;2004382;-79
2022/04/28 10:59:34;;;;;;;3.03;2.80;;;21.90;76.00;;;;;;7279399;19;2004974;-77
2022/04/28 11:02:07;;;;;;;2.88;2.67;;;21.30;73.30;;;;;;7379030;19;20873;-77
2022/04/28 11:04:33;;;;;;;3.08;2.78;;;21.20;75.50;;;;;;7385355;19;20725;-79
2022/04/28 11:06:59;;;;;;;5.78;2.88;;;21.10;75.60;;;;;;7381481;19;20332;-78
2022/04/28 11:09:32;;;;;;;3.30;2.70;;;21.40;77.10;;;;;;7381868;19;20363;-78
2022/04/28 11:12:05;;;;;;;4.90;3.00;;;22.00;77.90;;;;;;7378531;19;20333;-79
2022/04/28 11:15:06;;;;;;;3.25;2.90;;;22.70;75.90;;;;;;7380088;19;20317;-84
2022/04/28 11:17:38;;;;;;;3.47;2.92;;;22.90;71.80;;;;;;7178837;19;2004410;-80
2022/04/28 11:20:12;;;;;;;3.10;2.80;;;22.60;73.20;;;;;;7378459;19;20357;-78
2022/04/28 11:22:42;;;;;;;4.80;3.33;;;22.00;68.10;;;;;;7384489;19;20423;-77
2022/04/28 11:25:12;;;;;;;4.22;3.35;;;20.80;69.70;;;;;;7387719;19;20334;-77
2022/04/28 11:27:40;;;;;;;4.33;3.10;;;21.00;73.10;;;;;;7388210;19;20316;-78
2022/04/28 11:30:13;;;;;;;3.65;3.00;;;20.70;71.20;;;;;;7383111;19;20309;-78
2022/04/28 11:32:50;;;;;;;3.10;2.70;;;20.60;75.20;;;;;;7381746;19;20333;-78
2022/04/28 11:35:15;;;;;;;3.92;3.13;;;21.30;71.80;;;;;;7383472;19;20976;-78
2022/04/28 11:37:41;;;;;;;4.82;2.95;;;21.80;69.20;;;;;;7382018;19;20329;-77
2022/04/28 11:40:11;;;;;;;3.87;3.10;;;22.20;66.80;;;;;;7381208;19;20332;-78
2022/04/28 11:42:37;;;;;;;4.82;2.90;;;22.40;71.60;;;;;;7380694;19;20446;-79
2022/04/28 11:45:03;;;;;;;3.93;3.30;;;22.60;67.60;;;;;;7384029;19;21215;-78
2022/04/28 11:47:30;;;;;;;3.40;2.80;;;20.10;64.20;;;;;;7382666;19;20319;-77
2022/04/28 11:50:02;;;;;;;4.93;2.80;;;20.30;69.10;;;;;;7378113;19;20348;-78
2022/04/28 11:52:29;;;;;;;5.72;2.70;;;20.10;71.40;;;;;;7382175;19;20320;-79
2022/04/28 11:54:59;;;;;;;3.50;2.70;;;19.80;71.80;;;;;;7383582;19;20753;-78
2022/04/28 11:57:24;;;;;;;7.77;5.10;;;19.70;74.00;;;;;;7383125;19;20341;-81
2022/04/28 11:59:50;;;;;;;4.55;3.58;;;20.70;75.80;;;;;;7377182;19;21002;-79
2022/04/28 12:02:37;;;;;;;5.07;3.08;;;21.80;72.00;;;;;;7381766;19;20320;-78
2022/04/28 12:05:18;;;;;;;11.52;3.60;;;22.60;69.10;;;;;;7278956;19;2004806;-80
2022/04/28 12:07:51;;;;;;;4.40;3.20;;;22.50;66.70;;;;;;7382258;19;20354;-78
2022/04/28 12:15:59;;;;;;;4.38;2.50;;;21.60;68.00;;;;;;7279557;19;2004401;-78
2022/04/28 12:21:17;;;;;;;4.97;3.00;;;21.70;68.30;;;;;;7276821;19;2004631;-78
2022/04/28 12:23:45;;;;;;;2.75;2.55;;;19.80;65.40;;;;;;7383731;19;20333;-79
2022/04/28 12:26:12;;;;;;;3.85;2.55;;;19.70;69.20;;;;;;7381059;19;20425;-79
2022/04/28 12:28:42;;;;;;;3.00;2.60;;;19.30;68.50;;;;;;7380718;19;20331;-81
2022/04/28 12:31:09;;;;;;;5.50;2.70;;;19.70;71.00;;;;;;7377088;19;20349;-80
2022/04/28 12:33:36;;;;;;;4.00;2.88;;;19.60;66.20;;;;;;7380204;19;20896;-79
2022/04/28 12:36:03;;;;;;;3.65;2.55;;;20.80;68.10;;;;;;7379597;19;20397;-78
2022/04/28 12:38:28;;;;;;;2.40;2.20;;;21.00;64.60;;;;;;7378755;19;20376;-79
2022/04/28 12:40:54;;;;;;;2.43;2.23;;;20.80;65.60;;;;;;7377838;19;20340;-78
2022/04/28 12:43:39;;;;;;;2.95;2.60;;;20.00;68.70;;;;;;7379225;19;21251;-78
2022/04/28 12:46:06;;;;;;;2.72;2.53;;;19.90;66.60;;;;;;7380481;19;20927;-78
2022/04/28 12:48:36;;;;;;;2.65;2.45;;;20.00;67.70;;;;;;7379015;19;20358;-78
2022/04/28 12:51:17;;;;;;;2.55;2.33;;;20.10;67.90;;;;;;7376371;19;20971;-80
2022/04/28 12:53:50;;;;;;;2.87;2.50;;;21.10;72.70;;;;;;7279369;19;2004470;-79
2022/04/28 12:56:26;;;;;;;2.75;2.47;;;21.90;64.50;;;;;;7368439;19;20316;-80
2022/04/28 12:58:55;;;;;;;2.97;2.53;;;22.10;66.50;;;;;;7379203;19;20312;-84
2022/04/28 13:01:21;;;;;;;3.58;2.88;;;23.20;67.50;;;;;;7381527;19;20475;-80
2022/04/28 13:03:55;;;;;;;2.60;2.20;;;24.10;64.60;;;;;;7379567;19;20456;-78
2022/04/28 13:06:22;;;;;;;3.40;2.30;;;25.00;64.00;;;;;;7381725;19;20328;-80
2022/04/28 13:08:51;;;;;;;4.47;2.40;;;24.90;60.30;;;;;;7379892;19;20365;-79
2022/04/28 13:11:25;;;;;;;2.20;2.00;;;23.50;57.90;;;;;;7378383;19;20348;-79
2022/04/28 13:13:51;;;;;;;3.33;2.42;;;23.60;64.20;;;;;;7358706;19;20359;-79
2022/04/28 13:16:17;;;;;;;2.55;2.35;;;22.30;56.40;;;;;;7359476;19;20309;-79
2022/04/28 13:18:43;;;;;;;3.70;2.10;;;21.70;59.80;;;;;;7383455;19;20345;-79
2022/04/28 13:21:11;;;;;;;3.13;2.10;;;21.60;60.00;;;;;;7380601;19;20354;-78
2022/04/28 13:23:37;;;;;;;3.72;2.33;;;21.20;57.90;;;;;;7381296;19;20457;-80
2022/04/28 13:26:03;;;;;;;3.30;2.10;;;22.10;61.80;;;;;;7380669;19;20333;-80
2022/04/28 13:28:28;;;;;;;4.57;2.50;;;23.30;58.40;;;;;;7377111;19;20365;-80
2022/04/28 13:30:54;;;;;;;2.60;2.20;;;23.80;60.80;;;;;;7377692;19;20305;-79
2022/04/28 13:33:20;;;;;;;3.63;2.57;;;24.50;57.00;;;;;;7380364;19;20357;-79
2022/04/28 13:35:46;;;;;;;3.15;2.10;;;25.00;61.70;;;;;;7378953;19;20332;-81
2022/04/28 13:38:12;;;;;;;3.33;2.42;;;25.70;59.00;;;;;;7379130;19;20320;-79
2022/04/28 13:40:38;;;;;;;3.35;2.50;;;25.80;57.40;;;;;;7379286;19;20340;-79
2022/04/28 13:43:04;;;;;;;2.30;2.10;;;26.00;54.70;;;;;;7380764;19;20355;-83
2022/04/28 13:45:29;;;;;;;2.83;2.50;;;25.80;54.30;;;;;;7379143;19;20900;-80